sensor_id;sensor_type;location;lat;lon;timestamp;pressure;altitude;pressure_sealevel;temperature;humidity
54562;BME280;69047;53.358;-1.486;2023-07-29T00:00:38;99298.56;;;17.61;64.55
54562;BME280;69047;53.358;-1.486;2023-07-29T00:03:03;99301.53;;;17.39;65.43
54562;BME280;69047;53.358;-1.486;2023-07-29T00:05:29;99299.53;;;17.65;64.13
54562;BME280;69047;53.358;-1.486;2023-07-29T00:07:54;99301.63;;;17.51;64.74
54562;BME280;69047;53.358;-1.486;2023-07-29T00:10:19;99300.97;;;17.54;64.82
54562;BME280;69047;53.358;-1.486;2023-07-29T00:12:45;99306.44;;;17.54;64.72
54562;BME280;69047;53.358;-1.486;2023-07-29T00:15:11;99295.84;;;17.52;65.05
54562;BME280;69047;53.358;-1.486;2023-07-29T00:17:36;99289.78;;;17.38;65.03
54562;BME280;69047;53.358;-1.486;2023-07-29T00:20:02;99292.75;;;17.25;65.18
54562;BME280;69047;53.358;-1.486;2023-07-29T00:22:27;99291.84;;;17.50;64.66
54562;BME280;69047;53.358;-1.486;2023-07-29T00:24:53;99297.75;;;17.23;66.37
54562;BME280;69047;53.358;-1.486;2023-07-29T00:27:23;99294.97;;;17.31;66.19
54562;BME280;69047;53.358;-1.486;2023-07-29T00:29:48;99293.72;;;17.29;66.13
54562;BME280;69047;53.358;-1.486;2023-07-29T00:32:14;99284.00;;;17.40;65.53
54562;BME280;69047;53.358;-1.486;2023-07-29T00:34:39;99284.94;;;17.44;65.56
54562;BME280;69047;53.358;-1.486;2023-07-29T00:37:04;99281.41;;;17.43;65.34
54562;BME280;69047;53.358;-1.486;2023-07-29T00:39:31;99281.06;;;17.45;64.67
54562;BME280;69047;53.358;-1.486;2023-07-29T00:41:57;99281.44;;;17.35;65.65
54562;BME280;69047;53.358;-1.486;2023-07-29T00:44:22;99273.75;;;17.28;65.31
54562;BME280;69047;53.358;-1.486;2023-07-29T00:46:50;99272.28;;;17.31;65.73
54562;BME280;69047;53.358;-1.486;2023-07-29T00:49:17;99273.63;;;17.16;65.98
54562;BME280;69047;53.358;-1.486;2023-07-29T00:51:43;99273.25;;;17.35;65.67
54562;BME280;69047;53.358;-1.486;2023-07-29T00:54:08;99272.34;;;17.51;64.80
54562;BME280;69047;53.358;-1.486;2023-07-29T00:56:34;99262.25;;;17.43;65.31
54562;BME280;69047;53.358;-1.486;2023-07-29T00:59:01;99264.44;;;17.21;65.74
54562;BME280;69047;53.358;-1.486;2023-07-29T01:01:30;99263.31;;;17.22;65.53
54562;BME280;69047;53.358;-1.486;2023-07-29T01:03:56;99272.09;;;16.98;66.72
54562;BME280;69047;53.358;-1.486;2023-07-29T01:06:45;99269.06;;;16.82;67.65
54562;BME280;69047;53.358;-1.486;2023-07-29T01:09:25;99268.59;;;16.80;67.32
54562;BME280;69047;53.358;-1.486;2023-07-29T01:12:02;99261.88;;;17.15;65.97
54562;BME280;69047;53.358;-1.486;2023-07-29T01:14:51;99264.88;;;17.31;65.71
54562;BME280;69047;53.358;-1.486;2023-07-29T01:17:23;99264.59;;;17.53;64.99
54562;BME280;69047;53.358;-1.486;2023-07-29T01:20:11;99273.47;;;17.59;64.49
54562;BME280;69047;53.358;-1.486;2023-07-29T01:22:39;99273.94;;;17.52;64.81
54562;BME280;69047;53.358;-1.486;2023-07-29T01:25:05;99265.94;;;17.09;65.91
54562;BME280;69047;53.358;-1.486;2023-07-29T01:27:31;99264.34;;;17.00;66.52
54562;BME280;69047;53.358;-1.486;2023-07-29T01:29:57;99263.81;;;17.15;66.29
54562;BME280;69047;53.358;-1.486;2023-07-29T01:32:32;99259.34;;;17.10;66.49
54562;BME280;69047;53.358;-1.486;2023-07-29T01:35:17;99262.06;;;17.10;66.42
54562;BME280;69047;53.358;-1.486;2023-07-29T01:37:48;99260.41;;;17.18;66.49
54562;BME280;69047;53.358;-1.486;2023-07-29T01:40:15;99257.25;;;17.07;66.07
54562;BME280;69047;53.358;-1.486;2023-07-29T01:42:41;99261.06;;;17.15;66.31
54562;BME280;69047;53.358;-1.486;2023-07-29T01:45:06;99256.41;;;17.15;66.04
54562;BME280;69047;53.358;-1.486;2023-07-29T01:47:32;99251.09;;;17.19;65.77
54562;BME280;69047;53.358;-1.486;2023-07-29T01:49:57;99250.13;;;17.15;66.13
54562;BME280;69047;53.358;-1.486;2023-07-29T01:52:22;99244.59;;;16.94;66.68
54562;BME280;69047;53.358;-1.486;2023-07-29T01:54:48;99245.69;;;17.02;66.25
54562;BME280;69047;53.358;-1.486;2023-07-29T01:57:13;99241.34;;;17.01;65.92
54562;BME280;69047;53.358;-1.486;2023-07-29T01:59:38;99249.63;;;16.84;66.83
54562;BME280;69047;53.358;-1.486;2023-07-29T02:02:04;99247.03;;;16.87;67.26
54562;BME280;69047;53.358;-1.486;2023-07-29T02:04:29;99243.88;;;16.59;67.97
54562;BME280;69047;53.358;-1.486;2023-07-29T02:06:55;99250.63;;;16.53;68.51
54562;BME280;69047;53.358;-1.486;2023-07-29T02:09:20;99242.75;;;16.43;68.73
54562;BME280;69047;53.358;-1.486;2023-07-29T02:11:45;99253.03;;;16.64;67.67
54562;BME280;69047;53.358;-1.486;2023-07-29T02:14:11;99254.81;;;16.42;68.29
54562;BME280;69047;53.358;-1.486;2023-07-29T02:16:36;99258.19;;;16.56;68.13
54562;BME280;69047;53.358;-1.486;2023-07-29T02:19:02;99258.84;;;16.45;68.26
54562;BME280;69047;53.358;-1.486;2023-07-29T02:21:28;99259.31;;;16.38;68.14
54562;BME280;69047;53.358;-1.486;2023-07-29T02:23:53;99255.13;;;16.58;67.42
54562;BME280;69047;53.358;-1.486;2023-07-29T02:26:19;99253.03;;;16.55;67.32
54562;BME280;69047;53.358;-1.486;2023-07-29T02:28:44;99254.66;;;16.39;67.05
54562;BME280;69047;53.358;-1.486;2023-07-29T02:31:19;99250.50;;;16.33;67.32
54562;BME280;69047;53.358;-1.486;2023-07-29T02:33:45;99247.25;;;16.22;68.12
54562;BME280;69047;53.358;-1.486;2023-07-29T02:36:12;99249.66;;;16.41;67.01
54562;BME280;69047;53.358;-1.486;2023-07-29T02:38:38;99244.66;;;16.43;66.58
54562;BME280;69047;53.358;-1.486;2023-07-29T02:41:03;99242.13;;;16.29;67.12
54562;BME280;69047;53.358;-1.486;2023-07-29T02:43:29;99247.75;;;15.90;68.54
54562;BME280;69047;53.358;-1.486;2023-07-29T02:45:54;99239.56;;;15.90;68.50
54562;BME280;69047;53.358;-1.486;2023-07-29T02:48:19;99239.91;;;15.88;69.08
54562;BME280;69047;53.358;-1.486;2023-07-29T02:50:45;99235.53;;;15.79;69.16
54562;BME280;69047;53.358;-1.486;2023-07-29T02:53:10;99234.59;;;16.09;68.58
54562;BME280;69047;53.358;-1.486;2023-07-29T02:55:39;99236.06;;;16.07;68.92
54562;BME280;69047;53.358;-1.486;2023-07-29T02:58:04;99241.34;;;15.94;68.73
54562;BME280;69047;53.358;-1.486;2023-07-29T03:00:31;99234.25;;;16.02;68.27
54562;BME280;69047;53.358;-1.486;2023-07-29T03:02:58;99234.09;;;15.64;69.26
54562;BME280;69047;53.358;-1.486;2023-07-29T03:05:23;99230.19;;;15.48;69.79
54562;BME280;69047;53.358;-1.486;2023-07-29T03:07:49;99230.69;;;15.50;69.95
54562;BME280;69047;53.358;-1.486;2023-07-29T03:10:14;99227.47;;;15.65;68.66
54562;BME280;69047;53.358;-1.486;2023-07-29T03:12:40;99221.25;;;15.73;68.63
54562;BME280;69047;53.358;-1.486;2023-07-29T03:15:06;99222.84;;;15.74;68.50
54562;BME280;69047;53.358;-1.486;2023-07-29T03:17:31;99205.19;;;16.15;67.25
54562;BME280;69047;53.358;-1.486;2023-07-29T03:19:57;99214.81;;;15.95;67.43
54562;BME280;69047;53.358;-1.486;2023-07-29T03:22:22;99207.91;;;15.72;66.80
54562;BME280;69047;53.358;-1.486;2023-07-29T03:24:47;99202.91;;;15.65;67.95
54562;BME280;69047;53.358;-1.486;2023-07-29T03:27:13;99204.06;;;15.64;67.23
54562;BME280;69047;53.358;-1.486;2023-07-29T03:29:40;99201.81;;;15.83;66.69
54562;BME280;69047;53.358;-1.486;2023-07-29T03:32:05;99210.34;;;15.65;67.08
54562;BME280;69047;53.358;-1.486;2023-07-29T03:34:31;99204.94;;;15.34;68.37
54562;BME280;69047;53.358;-1.486;2023-07-29T03:36:57;99204.19;;;15.50;67.49
54562;BME280;69047;53.358;-1.486;2023-07-29T03:39:22;99205.28;;;15.41;68.19
54562;BME280;69047;53.358;-1.486;2023-07-29T03:41:48;99195.97;;;15.42;67.98
54562;BME280;69047;53.358;-1.486;2023-07-29T03:44:13;99199.00;;;15.32;68.93
54562;BME280;69047;53.358;-1.486;2023-07-29T03:46:39;99205.72;;;15.26;69.04
54562;BME280;69047;53.358;-1.486;2023-07-29T03:49:04;99212.13;;;15.30;68.30
54562;BME280;69047;53.358;-1.486;2023-07-29T03:51:30;99212.03;;;15.43;68.34
54562;BME280;69047;53.358;-1.486;2023-07-29T03:53:55;99214.38;;;15.19;68.57
54562;BME280;69047;53.358;-1.486;2023-07-29T03:56:20;99216.31;;;15.36;68.44
54562;BME280;69047;53.358;-1.486;2023-07-29T03:58:46;99211.19;;;15.34;67.78
54562;BME280;69047;53.358;-1.486;2023-07-29T04:01:13;99201.41;;;15.42;68.22
54562;BME280;69047;53.358;-1.486;2023-07-29T04:03:38;99205.88;;;15.29;67.91
54562;BME280;69047;53.358;-1.486;2023-07-29T04:06:04;99211.47;;;15.16;69.19
54562;BME280;69047;53.358;-1.486;2023-07-29T04:08:29;99205.63;;;15.48;67.80
54562;BME280;69047;53.358;-1.486;2023-07-29T04:10:55;99212.56;;;15.63;66.60
54562;BME280;69047;53.358;-1.486;2023-07-29T04:13:20;99212.50;;;15.37;67.27
54562;BME280;69047;53.358;-1.486;2023-07-29T04:15:46;99210.09;;;15.44;67.36
54562;BME280;69047;53.358;-1.486;2023-07-29T04:18:11;99210.41;;;15.42;67.55
54562;BME280;69047;53.358;-1.486;2023-07-29T04:20:36;99213.81;;;15.48;67.57
54562;BME280;69047;53.358;-1.486;2023-07-29T04:23:02;99211.25;;;15.52;67.18
54562;BME280;69047;53.358;-1.486;2023-07-29T04:25:27;99213.09;;;15.25;68.13
54562;BME280;69047;53.358;-1.486;2023-07-29T04:27:53;99212.44;;;15.20;68.95
54562;BME280;69047;53.358;-1.486;2023-07-29T04:30:18;99208.59;;;15.21;68.90
54562;BME280;69047;53.358;-1.486;2023-07-29T04:32:44;99214.63;;;15.48;67.96
54562;BME280;69047;53.358;-1.486;2023-07-29T04:35:10;99213.19;;;15.51;67.77
54562;BME280;69047;53.358;-1.486;2023-07-29T04:37:35;99205.47;;;15.53;67.76
54562;BME280;69047;53.358;-1.486;2023-07-29T04:40:01;99220.25;;;15.61;67.29
54562;BME280;69047;53.358;-1.486;2023-07-29T04:42:26;99212.50;;;15.45;67.48
54562;BME280;69047;53.358;-1.486;2023-07-29T04:44:52;99217.31;;;15.40;68.54
54562;BME280;69047;53.358;-1.486;2023-07-29T04:47:17;99219.03;;;15.27;68.92
54562;BME280;69047;53.358;-1.486;2023-07-29T04:49:43;99218.25;;;15.35;68.48
54562;BME280;69047;53.358;-1.486;2023-07-29T04:52:08;99215.03;;;15.25;69.07
54562;BME280;69047;53.358;-1.486;2023-07-29T04:54:34;99215.75;;;15.56;67.60
54562;BME280;69047;53.358;-1.486;2023-07-29T04:56:59;99220.25;;;15.52;68.36
54562;BME280;69047;53.358;-1.486;2023-07-29T04:59:25;99214.06;;;15.29;68.96
54562;BME280;69047;53.358;-1.486;2023-07-29T05:01:50;99218.19;;;15.58;68.54
54562;BME280;69047;53.358;-1.486;2023-07-29T05:04:15;99216.38;;;15.53;68.19
54562;BME280;69047;53.358;-1.486;2023-07-29T05:06:41;99223.47;;;15.71;67.81
54562;BME280;69047;53.358;-1.486;2023-07-29T05:09:17;99223.91;;;15.47;68.25
54562;BME280;69047;53.358;-1.486;2023-07-29T05:11:45;99226.06;;;15.76;67.27
54562;BME280;69047;53.358;-1.486;2023-07-29T05:14:14;99227.13;;;15.41;68.74
54562;BME280;69047;53.358;-1.486;2023-07-29T05:16:40;99228.88;;;15.45;68.63
54562;BME280;69047;53.358;-1.486;2023-07-29T05:19:05;99242.28;;;15.81;67.55
54562;BME280;69047;53.358;-1.486;2023-07-29T05:21:30;99236.03;;;15.89;67.31
54562;BME280;69047;53.358;-1.486;2023-07-29T05:23:56;99237.75;;;15.60;68.01
54562;BME280;69047;53.358;-1.486;2023-07-29T05:26:22;99236.19;;;15.84;67.07
54562;BME280;69047;53.358;-1.486;2023-07-29T05:28:47;99237.94;;;15.80;67.57
54562;BME280;69047;53.358;-1.486;2023-07-29T05:31:13;99233.63;;;15.71;67.92
54562;BME280;69047;53.358;-1.486;2023-07-29T05:33:38;99231.22;;;16.03;67.10
54562;BME280;69047;53.358;-1.486;2023-07-29T05:36:04;99232.81;;;16.04;66.34
54562;BME280;69047;53.358;-1.486;2023-07-29T05:38:30;99235.25;;;15.97;67.56
54562;BME280;69047;53.358;-1.486;2023-07-29T05:40:55;99241.16;;;15.74;67.52
54562;BME280;69047;53.358;-1.486;2023-07-29T05:43:21;99240.19;;;15.61;68.49
54562;BME280;69047;53.358;-1.486;2023-07-29T05:45:46;99237.00;;;15.85;68.08
54562;BME280;69047;53.358;-1.486;2023-07-29T05:48:11;99239.09;;;15.79;67.90
54562;BME280;69047;53.358;-1.486;2023-07-29T05:50:37;99239.56;;;15.81;68.09
54562;BME280;69047;53.358;-1.486;2023-07-29T05:53:02;99239.88;;;16.05;67.09
54562;BME280;69047;53.358;-1.486;2023-07-29T05:55:27;99235.88;;;15.86;67.98
54562;BME280;69047;53.358;-1.486;2023-07-29T05:57:53;99240.94;;;15.53;69.22
54562;BME280;69047;53.358;-1.486;2023-07-29T06:00:18;99237.13;;;15.63;68.95
54562;BME280;69047;53.358;-1.486;2023-07-29T06:02:44;99241.94;;;15.57;68.96
54562;BME280;69047;53.358;-1.486;2023-07-29T06:05:09;99229.38;;;15.47;69.55
54562;BME280;69047;53.358;-1.486;2023-07-29T06:07:34;99227.88;;;15.41;69.02
54562;BME280;69047;53.358;-1.486;2023-07-29T06:10:00;99238.47;;;15.26;70.66
54562;BME280;69047;53.358;-1.486;2023-07-29T06:12:25;99243.97;;;15.43;69.98
54562;BME280;69047;53.358;-1.486;2023-07-29T06:14:51;99237.28;;;15.10;70.93
54562;BME280;69047;53.358;-1.486;2023-07-29T06:17:17;99230.41;;;15.29;70.55
54562;BME280;69047;53.358;-1.486;2023-07-29T06:19:42;99234.97;;;15.42;70.42
54562;BME280;69047;53.358;-1.486;2023-07-29T06:22:10;99234.78;;;15.39;70.08
54562;BME280;69047;53.358;-1.486;2023-07-29T06:24:35;99241.06;;;15.39;71.05
54562;BME280;69047;53.358;-1.486;2023-07-29T06:27:01;99240.88;;;15.36;71.14
54562;BME280;69047;53.358;-1.486;2023-07-29T06:29:26;99237.25;;;15.49;70.52
54562;BME280;69047;53.358;-1.486;2023-07-29T06:31:52;99235.66;;;15.65;70.30
54562;BME280;69047;53.358;-1.486;2023-07-29T06:34:17;99240.19;;;15.61;70.43
54562;BME280;69047;53.358;-1.486;2023-07-29T06:36:43;99241.34;;;15.86;69.57
54562;BME280;69047;53.358;-1.486;2023-07-29T06:39:09;99239.56;;;15.90;69.03
54562;BME280;69047;53.358;-1.486;2023-07-29T06:41:35;99250.78;;;15.71;70.18
54562;BME280;69047;53.358;-1.486;2023-07-29T06:44:00;99242.28;;;15.81;69.91
54562;BME280;69047;53.358;-1.486;2023-07-29T06:46:26;99246.63;;;15.82;69.86
54562;BME280;69047;53.358;-1.486;2023-07-29T06:48:51;99245.50;;;16.35;68.02
54562;BME280;69047;53.358;-1.486;2023-07-29T06:51:17;99239.25;;;16.09;69.25
54562;BME280;69047;53.358;-1.486;2023-07-29T06:53:42;99242.13;;;16.21;68.87
54562;BME280;69047;53.358;-1.486;2023-07-29T06:56:07;99242.91;;;16.64;67.86
54562;BME280;69047;53.358;-1.486;2023-07-29T06:58:34;99244.97;;;16.84;66.31
54562;BME280;69047;53.358;-1.486;2023-07-29T07:00:59;99248.16;;;16.86;66.74
54562;BME280;69047;53.358;-1.486;2023-07-29T07:03:25;99240.91;;;16.82;65.42
54562;BME280;69047;53.358;-1.486;2023-07-29T07:05:51;99242.34;;;16.96;65.79
54562;BME280;69047;53.358;-1.486;2023-07-29T07:08:16;99241.09;;;16.77;66.59
54562;BME280;69047;53.358;-1.486;2023-07-29T07:10:41;99240.03;;;16.35;67.83
54562;BME280;69047;53.358;-1.486;2023-07-29T07:13:07;99241.94;;;16.51;67.48
54562;BME280;69047;53.358;-1.486;2023-07-29T07:15:32;99236.34;;;16.56;66.59
54562;BME280;69047;53.358;-1.486;2023-07-29T07:17:57;99237.56;;;16.76;65.15
54562;BME280;69047;53.358;-1.486;2023-07-29T07:20:23;99241.22;;;16.89;64.54
54562;BME280;69047;53.358;-1.486;2023-07-29T07:22:48;99243.13;;;16.97;64.24
54562;BME280;69047;53.358;-1.486;2023-07-29T07:25:14;99245.31;;;17.12;64.38
54562;BME280;69047;53.358;-1.486;2023-07-29T07:27:39;99231.53;;;17.38;64.18
54562;BME280;69047;53.358;-1.486;2023-07-29T07:30:05;99225.91;;;17.34;63.37
54562;BME280;69047;53.358;-1.486;2023-07-29T07:32:30;99244.78;;;17.56;62.82
54562;BME280;69047;53.358;-1.486;2023-07-29T07:34:56;99237.22;;;17.53;62.27
54562;BME280;69047;53.358;-1.486;2023-07-29T07:37:21;99240.34;;;17.73;62.14
54562;BME280;69047;53.358;-1.486;2023-07-29T07:39:47;99230.81;;;17.79;62.60
54562;BME280;69047;53.358;-1.486;2023-07-29T07:42:12;99240.28;;;17.60;62.73
54562;BME280;69047;53.358;-1.486;2023-07-29T07:44:38;99237.03;;;18.08;60.98
54562;BME280;69047;53.358;-1.486;2023-07-29T07:47:03;99236.59;;;17.77;60.94
54562;BME280;69047;53.358;-1.486;2023-07-29T07:49:28;99241.91;;;17.82;62.00
54562;BME280;69047;53.358;-1.486;2023-07-29T07:51:54;99244.50;;;17.79;62.09
54562;BME280;69047;53.358;-1.486;2023-07-29T07:54:19;99234.63;;;18.07;60.36
54562;BME280;69047;53.358;-1.486;2023-07-29T07:56:45;99244.22;;;18.13;60.61
54562;BME280;69047;53.358;-1.486;2023-07-29T07:59:11;99247.47;;;17.94;61.88
54562;BME280;69047;53.358;-1.486;2023-07-29T08:01:37;99255.81;;;17.98;61.86
54562;BME280;69047;53.358;-1.486;2023-07-29T08:04:03;99244.66;;;18.03;61.19
54562;BME280;69047;53.358;-1.486;2023-07-29T08:06:29;99250.38;;;18.31;60.24
54562;BME280;69047;53.358;-1.486;2023-07-29T08:08:55;99242.03;;;18.27;60.83
54562;BME280;69047;53.358;-1.486;2023-07-29T08:11:21;99249.22;;;18.32;60.79
54562;BME280;69047;53.358;-1.486;2023-07-29T08:13:46;99248.03;;;18.41;58.31
54562;BME280;69047;53.358;-1.486;2023-07-29T08:16:12;99244.50;;;17.99;60.66
54562;BME280;69047;53.358;-1.486;2023-07-29T08:18:37;99240.19;;;18.31;59.26
54562;BME280;69047;53.358;-1.486;2023-07-29T08:21:03;99243.78;;;18.11;59.35
54562;BME280;69047;53.358;-1.486;2023-07-29T08:23:30;99252.56;;;18.37;59.66
54562;BME280;69047;53.358;-1.486;2023-07-29T08:25:57;99247.69;;;18.43;59.56
54562;BME280;69047;53.358;-1.486;2023-07-29T08:28:28;99251.13;;;18.40;57.76
54562;BME280;69047;53.358;-1.486;2023-07-29T08:30:53;99252.59;;;18.16;58.60
54562;BME280;69047;53.358;-1.486;2023-07-29T08:33:19;99246.13;;;18.00;59.58
54562;BME280;69047;53.358;-1.486;2023-07-29T08:35:44;99244.38;;;18.16;57.90
54562;BME280;69047;53.358;-1.486;2023-07-29T08:38:09;99244.97;;;18.22;58.41
54562;BME280;69047;53.358;-1.486;2023-07-29T08:40:37;99241.75;;;18.20;59.78
54562;BME280;69047;53.358;-1.486;2023-07-29T08:43:07;99247.25;;;18.20;60.62
54562;BME280;69047;53.358;-1.486;2023-07-29T08:45:35;99245.63;;;18.19;59.41
54562;BME280;69047;53.358;-1.486;2023-07-29T08:48:10;99244.91;;;18.31;58.78
54562;BME280;69047;53.358;-1.486;2023-07-29T08:50:36;99245.69;;;18.52;58.71
54562;BME280;69047;53.358;-1.486;2023-07-29T08:53:05;99251.13;;;18.40;57.47
54562;BME280;69047;53.358;-1.486;2023-07-29T08:55:31;99247.16;;;18.49;58.00
54562;BME280;69047;53.358;-1.486;2023-07-29T08:57:59;99247.22;;;18.41;56.89
54562;BME280;69047;53.358;-1.486;2023-07-29T09:00:28;99240.81;;;18.57;56.39
54562;BME280;69047;53.358;-1.486;2023-07-29T09:02:54;99239.13;;;18.77;55.43
54562;BME280;69047;53.358;-1.486;2023-07-29T09:05:21;99244.44;;;19.06;54.59
54562;BME280;69047;53.358;-1.486;2023-07-29T09:07:50;99241.16;;;18.68;56.57
54562;BME280;69047;53.358;-1.486;2023-07-29T09:10:21;99241.56;;;18.78;53.46
54562;BME280;69047;53.358;-1.486;2023-07-29T09:12:46;99243.94;;;18.80;53.40
54562;BME280;69047;53.358;-1.486;2023-07-29T09:15:12;99238.13;;;18.49;55.24
54562;BME280;69047;53.358;-1.486;2023-07-29T09:17:37;99243.06;;;18.55;54.64
54562;BME280;69047;53.358;-1.486;2023-07-29T09:20:02;99248.91;;;18.99;53.13
54562;BME280;69047;53.358;-1.486;2023-07-29T09:22:28;99248.66;;;18.92;51.53
54562;BME280;69047;53.358;-1.486;2023-07-29T09:24:56;99242.19;;;18.63;52.64
54562;BME280;69047;53.358;-1.486;2023-07-29T09:27:27;99244.59;;;18.65;52.21
54562;BME280;69047;53.358;-1.486;2023-07-29T09:29:53;99243.88;;;18.56;52.00
54562;BME280;69047;53.358;-1.486;2023-07-29T09:32:23;99244.59;;;18.44;52.44
54562;BME280;69047;53.358;-1.486;2023-07-29T09:34:49;99250.03;;;18.53;53.53
54562;BME280;69047;53.358;-1.486;2023-07-29T09:37:20;99253.63;;;18.65;51.90
54562;BME280;69047;53.358;-1.486;2023-07-29T09:39:47;99244.72;;;18.68;51.24
54562;BME280;69047;53.358;-1.486;2023-07-29T09:42:20;99244.72;;;18.68;51.40
54562;BME280;69047;53.358;-1.486;2023-07-29T09:44:50;99251.25;;;18.88;51.36
54562;BME280;69047;53.358;-1.486;2023-07-29T09:47:22;99245.22;;;18.95;52.30
54562;BME280;69047;53.358;-1.486;2023-07-29T09:49:48;99251.16;;;18.97;51.27
54562;BME280;69047;53.358;-1.486;2023-07-29T09:52:16;99250.59;;;19.03;50.78
54562;BME280;69047;53.358;-1.486;2023-07-29T09:54:43;99247.88;;;19.03;52.15
54562;BME280;69047;53.358;-1.486;2023-07-29T09:57:08;99234.94;;;18.92;53.67
54562;BME280;69047;53.358;-1.486;2023-07-29T09:59:34;99229.59;;;19.19;52.13
54562;BME280;69047;53.358;-1.486;2023-07-29T10:02:00;99233.84;;;19.29;50.85
54562;BME280;69047;53.358;-1.486;2023-07-29T10:04:25;99249.97;;;19.43;49.47
54562;BME280;69047;53.358;-1.486;2023-07-29T10:06:52;99236.63;;;19.41;48.96
54562;BME280;69047;53.358;-1.486;2023-07-29T10:09:20;99241.28;;;19.65;48.76
54562;BME280;69047;53.358;-1.486;2023-07-29T10:11:46;99236.81;;;19.48;48.01
54562;BME280;69047;53.358;-1.486;2023-07-29T10:14:12;99239.22;;;19.62;48.87
54562;BME280;69047;53.358;-1.486;2023-07-29T10:16:40;99248.50;;;19.57;47.52
54562;BME280;69047;53.358;-1.486;2023-07-29T10:19:07;99237.16;;;19.59;48.31
54562;BME280;69047;53.358;-1.486;2023-07-29T10:21:33;99247.78;;;19.72;48.45
54562;BME280;69047;53.358;-1.486;2023-07-29T10:24:03;99251.78;;;19.63;49.17
54562;BME280;69047;53.358;-1.486;2023-07-29T10:26:31;99249.63;;;19.68;47.92
54562;BME280;69047;53.358;-1.486;2023-07-29T10:28:59;99261.66;;;19.52;47.24
54562;BME280;69047;53.358;-1.486;2023-07-29T10:31:30;99251.78;;;19.39;47.45
54562;BME280;69047;53.358;-1.486;2023-07-29T10:33:56;99258.66;;;19.57;47.43
54562;BME280;69047;53.358;-1.486;2023-07-29T10:36:22;99264.84;;;19.42;48.62
54562;BME280;69047;53.358;-1.486;2023-07-29T10:38:49;99273.78;;;19.51;49.22
54562;BME280;69047;53.358;-1.486;2023-07-29T10:41:14;99282.88;;;19.30;50.31
54562;BME280;69047;53.358;-1.486;2023-07-29T10:43:40;99274.75;;;19.10;51.62
54562;BME280;69047;53.358;-1.486;2023-07-29T10:46:19;99278.41;;;19.02;53.48
54562;BME280;69047;53.358;-1.486;2023-07-29T10:48:55;99285.63;;;19.18;50.97
54562;BME280;69047;53.358;-1.486;2023-07-29T10:54:13;99287.34;;;19.23;51.81
54562;BME280;69047;53.358;-1.486;2023-07-29T10:56:49;99286.19;;;19.12;53.06
54562;BME280;69047;53.358;-1.486;2023-07-29T11:01:50;99280.00;;;18.70;55.87
54562;BME280;69047;53.358;-1.486;2023-07-29T11:15:24;99272.16;;;18.48;55.47
54562;BME280;69047;53.358;-1.486;2023-07-29T11:17:55;99271.63;;;18.87;54.05
54562;BME280;69047;53.358;-1.486;2023-07-29T11:20:26;99270.47;;;18.88;54.25
54562;BME280;69047;53.358;-1.486;2023-07-29T11:22:54;99270.97;;;19.02;53.84
54562;BME280;69047;53.358;-1.486;2023-07-29T11:25:22;99271.78;;;19.15;54.26
54562;BME280;69047;53.358;-1.486;2023-07-29T11:27:48;99268.59;;;19.37;53.14
54562;BME280;69047;53.358;-1.486;2023-07-29T11:30:15;99287.38;;;19.35;50.63
54562;BME280;69047;53.358;-1.486;2023-07-29T11:32:44;99267.47;;;19.62;50.37
54562;BME280;69047;53.358;-1.486;2023-07-29T11:35:12;99276.63;;;19.66;49.44
54562;BME280;69047;53.358;-1.486;2023-07-29T11:37:39;99291.84;;;19.76;49.84
54562;BME280;69047;53.358;-1.486;2023-07-29T11:40:05;99286.34;;;19.76;49.44
54562;BME280;69047;53.358;-1.486;2023-07-29T11:42:32;99283.84;;;19.47;50.15
54562;BME280;69047;53.358;-1.486;2023-07-29T11:45:02;99289.91;;;19.52;49.90
54562;BME280;69047;53.358;-1.486;2023-07-29T11:47:29;99287.75;;;19.58;50.24
54562;BME280;69047;53.358;-1.486;2023-07-29T11:49:58;99300.34;;;19.47;52.32
54562;BME280;69047;53.358;-1.486;2023-07-29T11:52:24;99295.00;;;19.05;53.58
54562;BME280;69047;53.358;-1.486;2023-07-29T11:54:49;99298.16;;;18.95;52.47
54562;BME280;69047;53.358;-1.486;2023-07-29T11:57:16;99293.03;;;19.06;51.85
54562;BME280;69047;53.358;-1.486;2023-07-29T11:59:43;99280.94;;;19.19;52.37
54562;BME280;69047;53.358;-1.486;2023-07-29T12:02:16;99292.16;;;19.26;48.08
54562;BME280;69047;53.358;-1.486;2023-07-29T12:04:43;99297.41;;;19.31;49.19
54562;BME280;69047;53.358;-1.486;2023-07-29T12:07:09;99290.94;;;19.48;49.41
54562;BME280;69047;53.358;-1.486;2023-07-29T12:09:35;99298.16;;;19.76;47.92
54562;BME280;69047;53.358;-1.486;2023-07-29T12:12:03;99289.00;;;19.72;46.41
54562;BME280;69047;53.358;-1.486;2023-07-29T12:14:29;99292.78;;;19.80;45.82
54562;BME280;69047;53.358;-1.486;2023-07-29T12:16:54;99285.22;;;19.89;45.39
54562;BME280;69047;53.358;-1.486;2023-07-29T12:19:20;99290.59;;;19.85;46.51
54562;BME280;69047;53.358;-1.486;2023-07-29T12:21:47;99294.56;;;20.00;46.62
54562;BME280;69047;53.358;-1.486;2023-07-29T12:24:13;99290.97;;;20.24;46.70
54562;BME280;69047;53.358;-1.486;2023-07-29T12:26:40;99292.56;;;20.25;46.33
54562;BME280;69047;53.358;-1.486;2023-07-29T12:29:17;99284.22;;;20.21;45.31
54562;BME280;69047;53.358;-1.486;2023-07-29T12:31:45;99295.22;;;20.33;45.06
54562;BME280;69047;53.358;-1.486;2023-07-29T12:34:17;99284.06;;;20.42;45.00
54562;BME280;69047;53.358;-1.486;2023-07-29T12:36:43;99291.91;;;20.56;45.33
54562;BME280;69047;53.358;-1.486;2023-07-29T12:39:17;99287.94;;;20.41;44.34
54562;BME280;69047;53.358;-1.486;2023-07-29T12:41:42;99303.31;;;20.42;46.04
54562;BME280;69047;53.358;-1.486;2023-07-29T12:44:08;99295.22;;;20.33;44.75
54562;BME280;69047;53.358;-1.486;2023-07-29T12:46:33;99306.09;;;20.30;44.91
54562;BME280;69047;53.358;-1.486;2023-07-29T12:48:59;99292.91;;;20.35;45.16
54562;BME280;69047;53.358;-1.486;2023-07-29T12:51:24;99303.78;;;20.32;44.84
54562;BME280;69047;53.358;-1.486;2023-07-29T12:53:49;99287.88;;;20.25;44.73
54562;BME280;69047;53.358;-1.486;2023-07-29T12:56:15;99288.31;;;20.39;46.12
54562;BME280;69047;53.358;-1.486;2023-07-29T12:58:40;99291.09;;;20.55;44.09
54562;BME280;69047;53.358;-1.486;2023-07-29T13:01:05;99288.06;;;20.72;43.97
54562;BME280;69047;53.358;-1.486;2023-07-29T13:03:31;99297.41;;;20.83;43.46